Time;durP1;ratioP1;P1;durP2;ratioP2;P2;SDS_P1;SDS_P2;PMS_P1;PMS_P2;Temp;Humidity;BMP_temperature;BMP_pressure;BME280_temperature;BME280_humidity;BME280_pressure;Samples;Min_cycle;Max_cycle;Signal;HPM_P1;HPM_P2
2024/01/21 00:01:15;;;;;;;30.50;15.10;;;;;;;-0.49;95.19;100112.79;137407;1274;22683;-82
2024/01/21 00:04:36;;;;;;;35.20;14.50;;;;;;;-0.49;95.29;100113.64;137392;1274;22408;-82
2024/01/21 00:07:38;;;;;;;30.10;14.20;;;;;;;-0.50;95.29;100115.44;136942;1274;22226;-81
2024/01/21 00:10:39;;;;;;;34.10;15.60;;;;;;;-0.49;95.30;100118.77;137228;1274;22629;-82
2024/01/21 00:13:41;;;;;;;33.70;15.10;;;;;;;-0.49;95.24;100122.54;136913;1274;22700;-81
2024/01/21 00:16:42;;;;;;;32.20;14.60;;;;;;;-0.48;95.51;100124.13;136794;1274;22233;-81
2024/01/21 00:19:43;;;;;;;40.70;17.10;;;;;;;-0.47;95.52;100126.05;136993;1253;22599;-83
2024/01/21 00:22:44;;;;;;;29.70;15.20;;;;;;;-0.48;95.78;100127.20;137217;1274;22360;-80
2024/01/21 00:25:45;;;;;;;30.80;14.70;;;;;;;-0.49;95.67;100127.27;136846;1274;22187;-80
2024/01/21 00:28:46;;;;;;;34.90;16.50;;;;;;;-0.49;96.04;100128.34;137060;1274;22583;-81
2024/01/21 00:31:47;;;;;;;33.90;14.70;;;;;;;-0.49;95.93;100131.06;137225;1274;22545;-80
2024/01/21 00:34:48;;;;;;;31.40;15.70;;;;;;;-0.50;95.73;100132.69;136955;1274;22569;-80
2024/01/21 00:37:49;;;;;;;32.10;15.60;;;;;;;-0.49;95.88;100135.14;136636;1274;22157;-81
2024/01/21 00:40:50;;;;;;;33.40;15.90;;;;;;;-0.47;96.29;100141.84;137120;1274;22519;-80
2024/01/21 00:43:51;;;;;;;27.00;14.70;;;;;;;-0.47;96.66;100143.36;136855;1274;22222;-80
2024/01/21 00:46:52;;;;;;;28.90;14.30;;;;;;;-0.51;96.70;100141.52;136808;1274;22205;-80
2024/01/21 00:49:53;;;;;;;39.50;16.00;;;;;;;-0.52;96.84;100145.05;137054;1274;23344;-80
2024/01/21 00:52:55;;;;;;;35.30;16.40;;;;;;;-0.50;96.92;100149.27;137173;1274;22285;-80
2024/01/21 00:55:56;;;;;;;28.90;15.00;;;;;;;-0.50;97.08;100153.54;136772;1274;22228;-79
2024/01/21 00:58:57;;;;;;;37.30;17.70;;;;;;;-0.52;97.20;100158.55;136809;1274;22524;-82
2024/01/21 01:01:58;;;;;;;37.60;17.30;;;;;;;-0.52;97.32;100160.23;137281;1274;22560;-81
2024/01/21 01:04:59;;;;;;;33.60;16.70;;;;;;;-0.52;96.75;100161.80;136790;1274;22282;-81
2024/01/21 01:08:00;;;;;;;36.50;14.90;;;;;;;-0.50;97.06;100163.51;136799;1274;22565;-81
2024/01/21 01:11:01;;;;;;;35.30;15.70;;;;;;;-0.49;97.06;100172.96;137369;1274;22553;-81
2024/01/21 01:14:02;;;;;;;34.80;17.00;;;;;;;-0.51;97.09;100174.89;136787;1274;22628;-81
2024/01/21 01:17:03;;;;;;;32.40;16.70;;;;;;;-0.50;97.59;100174.75;136785;1274;22212;-81
2024/01/21 01:20:05;;;;;;;34.30;16.80;;;;;;;-0.52;97.57;100172.93;137169;1274;23301;-82
2024/01/21 01:23:06;;;;;;;34.70;18.10;;;;;;;-0.52;97.47;100175.59;136994;1269;22182;-82
2024/01/21 01:26:07;;;;;;;30.10;15.60;;;;;;;-0.54;97.64;100175.80;136786;1274;22223;-82
2024/01/21 01:29:08;;;;;;;29.70;16.10;;;;;;;-0.56;97.82;100178.61;136890;1274;23668;-82
2024/01/21 01:32:09;;;;;;;30.60;15.00;;;;;;;-0.55;97.59;100176.77;137240;1274;22644;-80
2024/01/21 01:35:10;;;;;;;29.60;16.20;;;;;;;-0.55;98.05;100178.66;136754;1274;22172;-82
2024/01/21 01:38:13;;;;;;;29.60;15.80;;;;;;;-0.54;98.22;100178.86;136769;1274;22527;-82
2024/01/21 01:41:14;;;;;;;35.90;18.10;;;;;;;-0.53;98.14;100183.08;137376;1274;22196;-80
2024/01/21 01:44:15;;;;;;;36.40;17.10;;;;;;;-0.51;97.83;100190.20;136741;1274;22377;-81
2024/01/21 01:47:16;;;;;;;30.70;16.20;;;;;;;-0.50;97.82;100195.83;136757;1274;22401;-81
2024/01/21 01:50:17;;;;;;;37.40;17.50;;;;;;;-0.48;98.19;100204.48;137280;1274;22550;-83
2024/01/21 01:53:18;;;;;;;35.10;16.90;;;;;;;-0.48;97.80;100205.67;136877;1274;22624;-82
2024/01/21 01:56:19;;;;;;;31.70;15.90;;;;;;;-0.48;97.99;100203.13;136768;1274;22781;-82
2024/01/21 01:59:20;;;;;;;34.60;18.40;;;;;;;-0.46;98.08;100205.48;137077;1274;22676;-83
2024/01/21 02:02:21;;;;;;;33.90;15.90;;;;;;;-0.44;98.01;100212.54;137173;1274;22227;-82
2024/01/21 02:05:22;;;;;;;41.30;17.90;;;;;;;-0.43;97.99;100213.09;136857;1274;22397;-82
2024/01/21 02:08:23;;;;;;;33.40;16.00;;;;;;;-0.41;97.94;100216.34;136753;1270;22536;-84
2024/01/21 02:11:24;;;;;;;31.10;17.10;;;;;;;-0.38;97.75;100217.63;137296;1274;22219;-82
2024/01/21 02:14:25;;;;;;;29.90;16.40;;;;;;;-0.36;97.95;100215.86;136786;1274;22207;-79
2024/01/21 02:17:26;;;;;;;38.80;17.70;;;;;;;-0.35;97.99;100219.17;136825;1274;22197;-82
2024/01/21 02:20:27;;;;;;;33.40;17.40;;;;;;;-0.34;97.92;100225.29;137332;1274;22320;-80
2024/01/21 02:23:31;;;;;;;37.00;17.50;;;;;;;-0.29;97.71;100227.67;136796;1262;22196;-80
2024/01/21 02:26:32;;;;;;;30.90;16.40;;;;;;;-0.28;97.81;100232.90;136780;1274;22509;-80
2024/01/21 02:29:33;;;;;;;40.00;19.00;;;;;;;-0.31;97.75;100234.94;137139;1274;22536;-83
2024/01/21 02:32:34;;;;;;;29.80;17.30;;;;;;;-0.29;97.71;100236.73;136969;1274;22163;-81
2024/01/21 02:35:36;;;;;;;34.70;19.10;;;;;;;-0.28;97.52;100242.63;136693;1274;22182;-80
2024/01/21 02:38:37;;;;;;;33.10;17.30;;;;;;;-0.27;97.50;100246.46;136948;1274;22533;-83
2024/01/21 02:41:38;;;;;;;32.40;18.50;;;;;;;-0.25;97.42;100248.69;137207;1274;22159;-80
2024/01/21 02:44:39;;;;;;;41.20;19.80;;;;;;;-0.20;97.37;100253.72;136767;1274;22208;-81
2024/01/21 02:47:40;;;;;;;35.70;18.70;;;;;;;-0.16;97.09;100255.52;136943;1274;22550;-82
2024/01/21 02:50:41;;;;;;;35.40;18.10;;;;;;;-0.14;97.05;100257.77;137052;1274;22161;-81
2024/01/21 02:53:42;;;;;;;40.30;18.30;;;;;;;-0.16;97.21;100254.73;136930;1274;22252;-80
2024/01/21 02:56:44;;;;;;;37.00;19.40;;;;;;;-0.15;97.43;100257.37;136864;1274;22534;-80
2024/01/21 02:59:45;;;;;;;34.40;18.30;;;;;;;-0.16;97.70;100254.86;137412;1274;22530;-82
2024/01/21 03:02:47;;;;;;;31.70;17.40;;;;;;;-0.18;98.02;100257.79;136840;1270;22547;-82
2024/01/21 03:05:48;;;;;;;36.20;17.00;;;;;;;-0.20;98.51;100260.39;136715;1274;22540;-82
2024/01/21 03:08:49;;;;;;;33.00;16.90;;;;;;;-0.21;97.99;100261.64;137167;1270;22528;-83
2024/01/21 03:11:50;;;;;;;35.70;18.50;;;;;;;-0.19;98.59;100257.36;137042;1274;22558;-82
2024/01/21 03:14:51;;;;;;;36.20;18.20;;;;;;;-0.18;98.84;100261.70;136781;1274;22199;-82
2024/01/21 03:17:52;;;;;;;35.40;16.40;;;;;;;-0.18;99.03;100262.77;136936;1274;22989;-83
2024/01/21 03:20:53;;;;;;;28.80;14.30;;;;;;;-0.19;99.61;100271.73;137267;1274;22854;-83
2024/01/21 03:23:54;;;;;;;26.70;15.20;;;;;;;-0.20;100.00;100269.91;136778;1274;22301;-82
2024/01/21 03:26:55;;;;;;;35.80;17.00;;;;;;;-0.23;100.00;100275.87;136796;1271;22541;-80
2024/01/21 03:29:56;;;;;;;31.00;16.50;;;;;;;-0.25;100.00;100278.27;137313;1274;22276;-80
2024/01/21 03:32:57;;;;;;;33.10;14.70;;;;;;;-0.25;100.00;100285.63;136746;1274;22703;-82
2024/01/21 03:35:58;;;;;;;31.80;16.60;;;;;;;-0.24;100.00;100286.21;136825;1274;22162;-83
2024/01/21 03:38:59;;;;;;;30.90;16.20;;;;;;;-0.24;100.00;100286.89;137250;1274;24089;-82
2024/01/21 03:42:00;;;;;;;32.40;17.50;;;;;;;-0.22;100.00;100286.09;136842;1274;22159;-82
2024/01/21 03:45:01;;;;;;;41.20;17.50;;;;;;;-0.20;100.00;100286.39;136848;1274;22303;-82
2024/01/21 03:48:03;;;;;;;31.50;17.00;;;;;;;-0.18;100.00;100288.23;137115;1274;24177;-82
2024/01/21 03:51:04;;;;;;;47.70;20.10;;;;;;;-0.12;100.00;100294.03;137096;1274;22664;-82
2024/01/21 03:54:05;;;;;;;35.70;17.50;;;;;;;-0.03;100.00;100293.71;136651;1274;22559;-82
2024/01/21 03:57:06;;;;;;;35.90;17.70;;;;;;;0.05;100.00;100293.25;136852;1274;22548;-82
2024/01/21 04:00:08;;;;;;;46.00;18.60;;;;;;;0.11;100.00;100293.09;137287;1274;22224;-81
2024/01/21 04:03:10;;;;;;;35.80;17.60;;;;;;;0.19;100.00;100293.80;136856;1274;22533;-81
2024/01/21 04:06:11;;;;;;;36.00;18.00;;;;;;;0.23;100.00;100296.34;136730;1274;24202;-82
2024/01/21 04:09:13;;;;;;;34.10;18.30;;;;;;;0.26;100.00;100295.77;137377;1274;22282;-81
2024/01/21 04:12:14;;;;;;;32.60;17.80;;;;;;;0.25;100.00;100301.83;136933;1274;22199;-81
2024/01/21 04:15:15;;;;;;;31.90;16.40;;;;;;;0.27;100.00;100310.21;136919;1274;22212;-81
2024/01/21 04:18:16;;;;;;;28.60;15.90;;;;;;;0.26;100.00;100308.06;137413;1274;22098;-82
2024/01/21 04:21:17;;;;;;;33.60;16.00;;;;;;;0.26;100.00;100305.66;137438;1274;22187;-81
2024/01/21 04:24:18;;;;;;;27.00;14.80;;;;;;;0.27;100.00;100307.15;137215;1274;22292;-82
2024/01/21 04:27:19;;;;;;;30.80;16.70;;;;;;;0.55;100.00;100310.39;137080;1274;22614;-81
2024/01/21 04:30:20;;;;;;;28.30;14.50;;;;;;;4.66;100.00;100301.96;137231;1274;22179;-81
2024/01/21 04:33:21;;;;;;;28.10;14.70;;;;;;;5.01;100.00;100300.60;136933;1274;22376;-81
2024/01/21 04:36:22;;;;;;;31.30;15.40;;;;;;;3.64;100.00;100311.48;136862;1274;22548;-81
2024/01/21 04:39:24;;;;;;;30.20;15.60;;;;;;;2.73;100.00;100325.00;137473;1274;22305;-81
2024/01/21 04:42:25;;;;;;;32.20;16.90;;;;;;;2.15;100.00;100326.25;136814;1271;22230;-80
2024/01/21 04:45:28;;;;;;;32.30;17.50;;;;;;;1.77;100.00;100328.72;136837;1274;22319;-80
2024/01/21 04:48:30;;;;;;;41.20;18.70;;;;;;;1.51;100.00;100330.98;137331;1270;22275;-80
2024/01/21 04:51:31;;;;;;;37.20;20.70;;;;;;;1.31;100.00;100333.38;136885;1274;23104;-80
2024/01/21 04:54:32;;;;;;;54.00;23.10;;;;;;;1.13;100.00;100330.98;136921;1274;24803;-80
2024/01/21 04:57:33;;;;;;;33.40;19.40;;;;;;;0.97;100.00;100330.66;137230;1274;25397;-81
2024/01/21 05:00:36;;;;;;;32.90;18.30;;;;;;;0.84;100.00;100330.40;136980;1274;22145;-80
2024/01/21 05:03:37;;;;;;;34.10;17.60;;;;;;;0.72;100.00;100327.44;137096;1262;22376;-80
2024/01/21 05:06:39;;;;;;;38.30;17.40;;;;;;;0.68;100.00;100331.09;137215;1274;22560;-81
2024/01/21 05:09:40;;;;;;;35.40;17.80;;;;;;;0.66;100.00;100334.73;137343;1274;22412;-80
2024/01/21 05:12:41;;;;;;;33.20;16.40;;;;;;;0.66;100.00;100340.70;137365;1274;22260;-80
2024/01/21 05:15:42;;;;;;;30.60;16.20;;;;;;;0.65;100.00;100343.55;136889;1274;22483;-80
2024/01/21 05:18:44;;;;;;;35.50;15.70;;;;;;;0.63;100.00;100339.15;137359;1274;22189;-79
2024/01/21 05:21:45;;;;;;;34.20;16.90;;;;;;;0.62;100.00;100342.27;136970;1258;22247;-79
2024/01/21 05:24:47;;;;;;;32.30;16.50;;;;;;;0.59;100.00;100342.09;136923;1274;22215;-79
2024/01/21 05:27:48;;;;;;;32.20;16.10;;;;;;;0.58;100.00;100341.16;137383;1274;22544;-81
2024/01/21 05:30:49;;;;;;;33.70;17.60;;;;;;;0.58;100.00;100341.70;137029;1274;22227;-80
2024/01/21 05:33:50;;;;;;;36.00;17.60;;;;;;;2.84;100.00;100329.13;136857;1274;22231;-81
2024/01/21 05:36:51;;;;;;;36.10;17.90;;;;;;;7.54;100.00;100316.73;137055;1274;22534;-82
2024/01/21 05:39:52;;;;;;;33.60;18.20;;;;;;;10.21;100.00;100304.40;137236;1270;22180;-80
2024/01/21 05:42:56;;;;;;;35.90;17.00;;;;;;;-100.12;19.20;20059.96;133842;1274;1005143;-81
2024/01/21 05:45:57;;;;;;;25.50;14.50;;;;;;;-128.00;-1.00;-1.00;133095;1274;1004677;-80
2024/01/21 05:48:58;;;;;;;26.80;15.50;;;;;;;-128.00;-1.00;-1.00;133741;1274;1004357;-81
2024/01/21 05:51:59;;;;;;;26.50;15.10;;;;;;;-128.00;-1.00;-1.00;133164;1274;1004505;-80
2024/01/21 05:55:00;;;;;;;28.30;15.90;;;;;;;-128.00;-1.00;-1.00;133344;1274;1004123;-80
2024/01/21 05:58:02;;;;;;;29.50;14.70;;;;;;;-128.00;-1.00;-1.00;133680;1274;1003386;-80
2024/01/21 06:01:03;;;;;;;26.70;14.90;;;;;;;-128.00;-1.00;-1.00;133206;1274;1003658;-81
2024/01/21 06:04:04;;;;;;;31.20;15.10;;;;;;;-128.00;-1.00;-1.00;133357;1274;1005044;-79
2024/01/21 06:07:05;;;;;;;27.40;15.90;;;;;;;-128.00;-1.00;-1.00;133734;1274;1004508;-79
2024/01/21 06:10:07;;;;;;;30.30;15.80;;;;;;;-128.00;-1.00;-1.00;133687;1274;1004215;-80
2024/01/21 06:13:08;;;;;;;31.20;15.60;;;;;;;-128.00;-1.00;-1.00;133711;1274;1004383;-79
2024/01/21 06:16:09;;;;;;;30.90;16.00;;;;;;;-128.00;-1.00;-1.00;133682;1274;1004240;-80
2024/01/21 06:19:10;;;;;;;29.40;16.10;;;;;;;-128.00;-1.00;-1.00;133717;1274;1004880;-79
2024/01/21 06:22:11;;;;;;;33.00;16.40;;;;;;;-128.00;-1.00;-1.00;133717;1274;1004841;-79
2024/01/21 06:25:12;;;;;;;32.30;16.30;;;;;;;-128.00;-1.00;-1.00;133681;1274;1004035;-79
2024/01/21 06:28:13;;;;;;;31.00;16.00;;;;;;;-128.00;-1.00;-1.00;133512;1274;1004596;-79
2024/01/21 06:31:14;;;;;;;31.00;16.20;;;;;;;-128.00;-1.00;-1.00;133430;1274;1004107;-79
2024/01/21 06:34:15;;;;;;;31.60;14.70;;;;;;;-128.00;-1.00;-1.00;133674;1274;1003947;-79
2024/01/21 06:37:16;;;;;;;24.40;14.60;;;;;;;-128.00;-1.00;-1.00;133690;1274;1005187;-79
2024/01/21 06:40:18;;;;;;;28.80;16.30;;;;;;;-128.00;-1.00;-1.00;133568;1274;1003683;-79
2024/01/21 06:43:19;;;;;;;28.70;17.20;;;;;;;-128.00;-1.00;-1.00;133364;1274;1003351;-79
2024/01/21 06:46:23;;;;;;;28.20;15.90;;;;;;;-128.00;-1.00;-1.00;133647;1274;1004221;-79
2024/01/21 06:49:24;;;;;;;29.70;17.10;;;;;;;-128.00;-1.00;-1.00;133277;1274;1003604;-79
2024/01/21 06:52:28;;;;;;;30.00;17.50;;;;;;;-128.00;-1.00;-1.00;133213;1274;1003642;-79
2024/01/21 06:55:29;;;;;;;34.10;18.00;;;;;;;-128.00;-1.00;-1.00;133624;1274;1004262;-82
2024/01/21 06:58:30;;;;;;;31.00;17.50;;;;;;;-128.00;-1.00;-1.00;133383;1274;1005673;-79
2024/01/21 07:01:31;;;;;;;39.40;20.60;;;;;;;-128.00;-1.00;-1.00;133196;1274;1004242;-79
2024/01/21 07:04:32;;;;;;;42.80;21.10;;;;;;;-128.00;-1.00;-1.00;133408;1274;1004100;-82
2024/01/21 07:07:33;;;;;;;36.40;19.60;;;;;;;-128.00;-1.00;-1.00;133454;1274;1004408;-80
2024/01/21 07:10:34;;;;;;;40.70;19.90;;;;;;;-128.00;-1.00;-1.00;133249;1274;1003908;-80
2024/01/21 07:13:35;;;;;;;35.80;18.30;;;;;;;-128.00;-1.00;-1.00;133363;1274;1004666;-80
2024/01/21 07:16:36;;;;;;;38.60;20.00;;;;;;;-128.00;-1.00;-1.00;133652;1274;1004126;-80
2024/01/21 07:19:37;;;;;;;37.70;21.00;;;;;;;-128.00;-1.00;-1.00;133325;1274;1004964;-80
2024/01/21 07:22:38;;;;;;;43.20;20.50;;;;;;;-128.00;-1.00;-1.00;133373;1274;1004220;-80
2024/01/21 07:25:40;;;;;;;41.70;20.70;;;;;;;-128.00;-1.00;-1.00;133455;1274;1004253;-79
2024/01/21 07:28:41;;;;;;;46.20;20.50;;;;;;;-128.00;-1.00;-1.00;133381;1274;1004743;-79
2024/01/21 07:31:42;;;;;;;42.70;19.60;;;;;;;-128.00;-1.00;-1.00;133354;1274;1004689;-79
2024/01/21 07:34:43;;;;;;;33.90;18.20;;;;;;;-128.00;-1.00;-1.00;133760;1274;1004064;-79
2024/01/21 07:37:44;;;;;;;36.60;19.10;;;;;;;-128.00;-1.00;-1.00;133368;1274;1005214;-82
2024/01/21 07:40:47;;;;;;;38.30;19.30;;;;;;;-128.00;-1.00;-1.00;133580;1274;1004668;-80
2024/01/21 07:43:48;;;;;;;34.80;18.10;;;;;;;-128.00;-1.00;-1.00;133731;1274;1003475;-81
2024/01/21 07:46:49;;;;;;;33.70;19.10;;;;;;;-128.00;-1.00;-1.00;133695;1274;1004167;-79
2024/01/21 07:49:50;;;;;;;35.50;19.40;;;;;;;-128.00;-1.00;-1.00;133428;1274;1004264;-80
2024/01/21 07:52:52;;;;;;;41.60;20.40;;;;;;;-128.00;-1.00;-1.00;133437;1274;1004632;-80
2024/01/21 07:55:53;;;;;;;33.40;20.10;;;;;;;-128.00;-1.00;-1.00;133647;1274;1004443;-80
2024/01/21 07:58:55;;;;;;;40.90;22.70;;;;;;;-128.00;-1.00;-1.00;133425;1274;1005035;-79
2024/01/21 08:01:56;;;;;;;45.50;23.70;;;;;;;-128.00;-1.00;-1.00;133600;1274;1005201;-80
2024/01/21 08:04:57;;;;;;;52.90;26.90;;;;;;;-128.00;-1.00;-1.00;133698;1274;1003877;-80
2024/01/21 08:07:58;;;;;;;52.40;28.30;;;;;;;-128.00;-1.00;-1.00;133437;1274;1004024;-80
2024/01/21 08:10:59;;;;;;;75.20;34.70;;;;;;;-128.00;-1.00;-1.00;133383;1274;1004705;-79
2024/01/21 08:14:00;;;;;;;50.40;26.30;;;;;;;-128.00;-1.00;-1.00;133640;1274;1004909;-79
2024/01/21 08:17:02;;;;;;;56.50;26.80;;;;;;;-128.00;-1.00;-1.00;133681;1274;1004484;-80
2024/01/21 08:20:05;;;;;;;53.20;27.60;;;;;;;-128.00;-1.00;-1.00;133515;1274;1004423;-80
2024/01/21 08:23:06;;;;;;;46.40;25.60;;;;;;;-128.00;-1.00;-1.00;133632;1274;1004060;-80
2024/01/21 08:26:07;;;;;;;46.00;26.00;;;;;;;-128.00;-1.00;-1.00;133605;1274;1004418;-81
2024/01/21 08:29:08;;;;;;;47.70;25.00;;;;;;;-128.00;-1.00;-1.00;133469;1274;1004569;-80
2024/01/21 08:32:09;;;;;;;55.40;26.30;;;;;;;-128.00;-1.00;-1.00;133346;1274;1004224;-80
2024/01/21 08:35:11;;;;;;;45.80;25.70;;;;;;;-128.00;-1.00;-1.00;133675;1274;1004899;-79
2024/01/21 08:38:12;;;;;;;52.10;27.00;;;;;;;-128.00;-1.00;-1.00;133471;1274;1004713;-80
2024/01/21 08:41:13;;;;;;;48.90;26.40;;;;;;;-128.00;-1.00;-1.00;133520;1274;1003670;-81
2024/01/21 08:44:14;;;;;;;46.30;28.00;;;;;;;-128.00;-1.00;-1.00;133510;1274;1004072;-80
2024/01/21 08:47:15;;;;;;;51.70;27.60;;;;;;;-128.00;-1.00;-1.00;133520;1274;1003457;-80
2024/01/21 08:50:17;;;;;;;50.00;26.50;;;;;;;-128.00;-1.00;-1.00;133458;1274;1004109;-80
2024/01/21 08:53:18;;;;;;;47.40;24.60;;;;;;;-128.00;-1.00;-1.00;133720;1274;1003985;-80
2024/01/21 08:56:19;;;;;;;51.10;26.00;;;;;;;-128.00;-1.00;-1.00;133699;1274;1004706;-80
2024/01/21 08:59:20;;;;;;;48.50;25.90;;;;;;;-128.00;-1.00;-1.00;133699;1274;1004328;-79
2024/01/21 09:02:21;;;;;;;48.10;27.10;;;;;;;-128.00;-1.00;-1.00;133614;1273;1004152;-80
2024/01/21 09:05:23;;;;;;;45.00;25.40;;;;;;;-128.00;-1.00;-1.00;133568;1274;1004124;-78
2024/01/21 09:08:24;;;;;;;41.90;24.90;;;;;;;-128.00;-1.00;-1.00;133447;1274;1004407;-79
2024/01/21 09:11:25;;;;;;;47.70;26.20;;;;;;;-128.00;-1.00;-1.00;133606;1274;1004182;-80
2024/01/21 09:14:26;;;;;;;42.30;24.40;;;;;;;-128.00;-1.00;-1.00;133694;1274;1004957;-80
2024/01/21 09:17:28;;;;;;;41.60;25.30;;;;;;;-128.00;-1.00;-1.00;133515;1274;1004364;-79
2024/01/21 09:20:29;;;;;;;42.60;24.60;;;;;;;-128.00;-1.00;-1.00;133489;1274;1003885;-79
2024/01/21 09:23:30;;;;;;;48.80;25.40;;;;;;;-128.00;-1.00;-1.00;133689;1274;1004078;-80
2024/01/21 09:26:31;;;;;;;48.30;26.70;;;;;;;-128.00;-1.00;-1.00;133652;1274;1004238;-79
2024/01/21 09:29:32;;;;;;;56.60;26.80;;;;;;;-128.00;-1.00;-1.00;133497;1274;1005326;-79
2024/01/21 09:32:33;;;;;;;55.70;27.10;;;;;;;-128.00;-1.00;-1.00;133680;1274;1004344;-80
2024/01/21 09:35:34;;;;;;;46.80;26.30;;;;;;;-128.00;-1.00;-1.00;133534;1274;1003822;-79
2024/01/21 09:38:35;;;;;;;46.50;25.80;;;;;;;-128.00;-1.00;-1.00;133587;1274;1004613;-79
2024/01/21 09:41:37;;;;;;;47.10;26.50;;;;;;;-128.00;-1.00;-1.00;133487;1274;1004949;-80
2024/01/21 09:44:38;;;;;;;56.30;29.00;;;;;;;-128.00;-1.00;-1.00;133378;1274;1003994;-79
2024/01/21 09:47:39;;;;;;;58.00;30.20;;;;;;;-128.00;-1.00;-1.00;133451;1274;1004213;-79
2024/01/21 09:50:41;;;;;;;51.60;29.50;;;;;;;-128.00;-1.00;-1.00;133444;1274;1004059;-80
2024/01/21 09:53:42;;;;;;;46.90;27.50;;;;;;;-128.00;-1.00;-1.00;133654;1274;1004485;-80
2024/01/21 09:56:46;;;;;;;48.40;26.70;;;;;;;-128.00;-1.00;-1.00;133196;1274;1003912;-78
2024/01/21 09:59:47;;;;;;;55.00;28.80;;;;;;;-128.00;-1.00;-1.00;133587;1274;1003414;-79
2024/01/21 10:02:48;;;;;;;59.10;30.90;;;;;;;-128.00;-1.00;-1.00;133723;1274;1003834;-79
2024/01/21 10:05:50;;;;;;;54.60;30.80;;;;;;;-128.00;-1.00;-1.00;133720;1274;1004683;-80
2024/01/21 10:08:51;;;;;;;62.30;32.10;;;;;;;-128.00;-1.00;-1.00;133491;1274;1004626;-80
2024/01/21 10:11:52;;;;;;;56.10;31.40;;;;;;;-128.00;-1.00;-1.00;133571;1274;1004056;-79
2024/01/21 10:14:53;;;;;;;54.50;26.40;;;;;;;-128.00;-1.00;-1.00;133585;1274;1005226;-79
2024/01/21 10:17:55;;;;;;;46.50;26.70;;;;;;;-128.00;-1.00;-1.00;133556;1274;1004491;-79
2024/01/21 10:20:56;;;;;;;50.30;26.80;;;;;;;-128.00;-1.00;-1.00;133650;1274;1004513;-79
2024/01/21 10:23:57;;;;;;;56.10;28.50;;;;;;;-128.00;-1.00;-1.00;133683;1274;1004684;-80
2024/01/21 10:26:58;;;;;;;50.70;26.70;;;;;;;-128.00;-1.00;-1.00;133560;1274;1003962;-80
2024/01/21 10:29:59;;;;;;;44.80;24.40;;;;;;;-128.00;-1.00;-1.00;133604;1274;1004480;-80
2024/01/21 10:33:01;;;;;;;51.50;24.40;;;;;;;-128.00;-1.00;-1.00;133645;1274;1004414;-80
2024/01/21 10:36:02;;;;;;;48.00;25.30;;;;;;;-128.00;-1.00;-1.00;133667;1274;1004047;-80
2024/01/21 10:39:03;;;;;;;44.20;25.70;;;;;;;-128.00;-1.00;-1.00;133383;1274;1004394;-81
2024/01/21 10:42:05;;;;;;;46.70;26.00;;;;;;;-128.00;-1.00;-1.00;133556;1274;1005087;-81
2024/01/21 10:45:06;;;;;;;51.10;26.60;;;;;;;-128.00;-1.00;-1.00;133523;1274;1004953;-79
2024/01/21 10:48:07;;;;;;;45.10;26.60;;;;;;;-128.00;-1.00;-1.00;133565;1274;1004967;-79
2024/01/21 10:51:08;;;;;;;50.90;28.30;;;;;;;-128.00;-1.00;-1.00;133677;1274;1003837;-80
2024/01/21 10:54:11;;;;;;;61.70;32.10;;;;;;;-128.00;-1.00;-1.00;133498;1274;1004073;-80
2024/01/21 10:57:13;;;;;;;59.00;31.50;;;;;;;-128.00;-1.00;-1.00;133488;1274;1003251;-80
2024/01/21 11:00:15;;;;;;;54.30;29.10;;;;;;;-128.00;-1.00;-1.00;133539;1274;1005325;-80
2024/01/21 11:03:16;;;;;;;55.40;30.20;;;;;;;-128.00;-1.00;-1.00;133402;1274;1004399;-81
2024/01/21 11:06:18;;;;;;;50.50;26.70;;;;;;;-128.00;-1.00;-1.00;133483;1274;1003668;-80
2024/01/21 11:09:21;;;;;;;51.00;27.00;;;;;;;-128.00;-1.00;-1.00;133361;1274;1004191;-81
2024/01/21 11:12:22;;;;;;;56.60;29.30;;;;;;;-128.00;-1.00;-1.00;133637;1274;1003852;-80
2024/01/21 11:15:24;;;;;;;51.40;26.90;;;;;;;-128.00;-1.00;-1.00;133730;1274;1004131;-80
2024/01/21 11:18:25;;;;;;;51.80;30.00;;;;;;;-128.00;-1.00;-1.00;133487;1274;1004374;-79
2024/01/21 11:21:26;;;;;;;51.60;28.90;;;;;;;-128.00;-1.00;-1.00;133676;1274;1003823;-81
2024/01/21 11:24:27;;;;;;;48.80;27.30;;;;;;;-128.00;-1.00;-1.00;133460;1274;1003629;-80
2024/01/21 11:27:29;;;;;;;60.30;30.10;;;;;;;-128.00;-1.00;-1.00;133698;1274;1004204;-81
2024/01/21 11:30:30;;;;;;;55.80;30.00;;;;;;;-128.00;-1.00;-1.00;133447;1274;1003879;-81
2024/01/21 11:33:31;;;;;;;52.30;29.80;;;;;;;-128.00;-1.00;-1.00;133541;1274;1003473;-81
2024/01/21 11:36:32;;;;;;;51.30;29.50;;;;;;;-128.00;-1.00;-1.00;133475;1274;1004113;-82
2024/01/21 11:39:34;;;;;;;56.40;31.20;;;;;;;-128.00;-1.00;-1.00;133463;1274;1004932;-81
2024/01/21 11:42:36;;;;;;;62.90;31.80;;;;;;;-128.00;-1.00;-1.00;133680;1274;1005179;-81
2024/01/21 11:45:38;;;;;;;56.50;29.60;;;;;;;-128.00;-1.00;-1.00;133455;1274;1003948;-81
2024/01/21 11:48:40;;;;;;;64.30;32.70;;;;;;;-128.00;-1.00;-1.00;133415;1274;1003967;-81
2024/01/21 11:51:41;;;;;;;48.40;27.70;;;;;;;-128.00;-1.00;-1.00;133465;1274;1004174;-81
2024/01/21 11:54:42;;;;;;;51.60;29.40;;;;;;;-128.00;-1.00;-1.00;133529;1274;1004657;-81
2024/01/21 11:57:43;;;;;;;55.70;31.50;;;;;;;-128.00;-1.00;-1.00;133661;1274;1003817;-81
2024/01/21 12:00:45;;;;;;;65.20;31.40;;;;;;;-128.00;-1.00;-1.00;133558;1274;1004997;-81
2024/01/21 12:03:46;;;;;;;59.00;31.70;;;;;;;-128.00;-1.00;-1.00;133197;1274;1004794;-81
2024/01/21 12:06:48;;;;;;;53.20;30.60;;;;;;;-128.00;-1.00;-1.00;133606;1274;1004100;-80
2024/01/21 12:09:49;;;;;;;54.80;30.80;;;;;;;-128.00;-1.00;-1.00;133331;1274;1003852;-80
2024/01/21 12:12:50;;;;;;;64.60;32.30;;;;;;;-128.00;-1.00;-1.00;133406;1274;1004087;-80
2024/01/21 12:15:59;;;;;;;61.30;30.60;;;;;;;-128.00;-1.00;-1.00;133478;1274;1003971;-80
2024/01/21 12:19:00;;;;;;;57.00;29.50;;;;;;;-128.00;-1.00;-1.00;133572;1274;1004524;-79
2024/01/21 12:22:05;;;;;;;53.40;29.20;;;;;;;-128.00;-1.00;-1.00;133302;1274;1004109;-79
2024/01/21 12:25:06;;;;;;;66.80;36.70;;;;;;;-128.00;-1.00;-1.00;133529;1274;1004530;-79
2024/01/21 12:28:07;;;;;;;69.90;35.10;;;;;;;-128.00;-1.00;-1.00;133844;1274;1004868;-78
2024/01/21 12:31:09;;;;;;;65.50;33.30;;;;;;;-128.00;-1.00;-1.00;133794;1274;1004546;-80
2024/01/21 12:34:10;;;;;;;59.10;30.60;;;;;;;-128.00;-1.00;-1.00;133605;1274;1004632;-82
2024/01/21 12:37:12;;;;;;;54.70;30.30;;;;;;;-128.00;-1.00;-1.00;133502;1274;1004979;-80
2024/01/21 12:40:13;;;;;;;54.50;30.00;;;;;;;-128.00;-1.00;-1.00;133578;1274;1003868;-79
2024/01/21 12:43:17;;;;;;;56.40;29.80;;;;;;;-128.00;-1.00;-1.00;133620;1274;1004252;-79
2024/01/21 12:46:21;;;;;;;55.10;29.00;;;;;;;-128.00;-1.00;-1.00;133675;1274;1005127;-79
2024/01/21 12:49:22;;;;;;;55.50;29.20;;;;;;;-128.00;-1.00;-1.00;133570;1274;1004551;-79
2024/01/21 12:52:24;;;;;;;57.40;28.30;;;;;;;-128.00;-1.00;-1.00;133431;1274;1004932;-79
2024/01/21 12:55:25;;;;;;;59.10;29.20;;;;;;;-128.00;-1.00;-1.00;133378;1274;1004059;-79
2024/01/21 12:58:26;;;;;;;56.60;26.80;;;;;;;-128.00;-1.00;-1.00;133562;1274;1004274;-80
2024/01/21 13:01:28;;;;;;;52.60;27.60;;;;;;;-128.00;-1.00;-1.00;133653;1274;1003741;-79
2024/01/21 13:04:29;;;;;;;47.90;26.10;;;;;;;-128.00;-1.00;-1.00;133640;1274;1005091;-80
2024/01/21 13:07:31;;;;;;;57.80;30.00;;;;;;;-128.00;-1.00;-1.00;133625;1274;1003971;-79
2024/01/21 13:10:32;;;;;;;51.20;27.00;;;;;;;-128.00;-1.00;-1.00;133494;1274;1004426;-79
2024/01/21 13:13:33;;;;;;;54.20;27.60;;;;;;;-128.00;-1.00;-1.00;133396;1274;1004038;-80
2024/01/21 13:16:34;;;;;;;57.40;28.50;;;;;;;-128.00;-1.00;-1.00;133613;1274;1004388;-79
2024/01/21 13:19:35;;;;;;;51.50;29.00;;;;;;;-128.00;-1.00;-1.00;133514;1274;1004511;-80
2024/01/21 13:22:37;;;;;;;56.50;30.10;;;;;;;-128.00;-1.00;-1.00;133559;1274;1004987;-79
2024/01/21 13:25:38;;;;;;;54.40;29.40;;;;;;;-128.00;-1.00;-1.00;133598;1274;1004661;-79
2024/01/21 13:30:43;;;;;;;52.20;28.00;;;;;;;-128.00;-1.00;-1.00;133532;1273;1004724;-79
2024/01/21 13:32:00;;;;;;;54.50;28.50;;;;;;;-128.00;-1.00;-1.00;133594;1274;1005109;-79
2024/01/21 13:35:02;;;;;;;49.60;28.20;;;;;;;-128.00;-1.00;-1.00;133562;1274;1004090;-79